createdAt,value
2017-12-12T00:00:53.594Z,5.50
2017-12-12T00:03:20.492Z,5.50
2017-12-12T00:05:46.756Z,5.50
2017-12-12T00:08:12.923Z,5.50
2017-12-12T00:10:39.076Z,5.50
2017-12-12T00:13:05.950Z,5.50
2017-12-12T00:15:32.190Z,5.60
2017-12-12T00:17:58.332Z,5.60
2017-12-12T00:20:25.567Z,5.60
2017-12-12T00:22:51.705Z,5.50
2017-12-12T00:25:18.714Z,5.50
2017-12-12T00:27:44.834Z,5.50
2017-12-12T00:30:11.037Z,5.50
2017-12-12T00:32:37.116Z,5.50
2017-12-12T00:35:03.256Z,5.50
2017-12-12T00:37:30.154Z,5.50
2017-12-12T00:39:57.133Z,5.50
2017-12-12T00:42:23.253Z,5.50
2017-12-12T00:44:49.406Z,5.50
2017-12-12T00:47:15.542Z,5.50
2017-12-12T00:49:41.732Z,5.50
2017-12-12T00:52:08.461Z,5.40
2017-12-12T00:54:34.600Z,5.40
2017-12-12T00:57:00.795Z,5.50
2017-12-12T00:59:26.937Z,5.50
2017-12-12T01:01:53.110Z,5.50
2017-12-12T01:04:19.966Z,5.40
2017-12-12T01:06:46.114Z,5.40
2017-12-12T01:09:12.688Z,5.40
2017-12-12T01:11:38.893Z,5.30
2017-12-12T01:14:05.085Z,5.40
2017-12-12T01:16:31.222Z,5.30
2017-12-12T01:18:57.313Z,5.30
2017-12-12T01:21:24.199Z,5.20
2017-12-12T01:23:50.289Z,5.20
2017-12-12T01:26:16.417Z,5.20
2017-12-12T01:28:43.434Z,5.20
2017-12-12T01:31:10.394Z,5.20
2017-12-12T01:33:37.262Z,5.20
2017-12-12T01:36:03.433Z,5.20
2017-12-12T01:38:29.611Z,5.10
2017-12-12T01:40:55.813Z,5.10
2017-12-12T01:43:22.133Z,5.10
2017-12-12T01:45:48.289Z,5.10
2017-12-12T01:48:15.200Z,5.10
2017-12-12T01:50:41.959Z,5.10
2017-12-12T01:53:08.101Z,5.00
2017-12-12T01:55:34.313Z,5.00
2017-12-12T01:58:01.288Z,5.00
2017-12-12T02:00:27.428Z,5.00
2017-12-12T02:02:53.549Z,4.90
2017-12-12T02:05:19.803Z,4.90
2017-12-12T02:07:45.918Z,4.80
2017-12-12T02:10:13.022Z,4.70
2017-12-12T02:12:39.972Z,4.50
2017-12-12T02:15:06.860Z,4.30
2017-12-12T02:17:33.062Z,4.30
2017-12-12T02:19:59.225Z,4.30
2017-12-12T02:22:25.327Z,4.30
2017-12-12T02:24:51.526Z,4.30
2017-12-12T02:27:18.444Z,4.20
2017-12-12T02:29:44.578Z,4.20
2017-12-12T02:32:10.740Z,4.30
2017-12-12T02:34:36.897Z,4.20
2017-12-12T02:37:03.135Z,4.20
2017-12-12T02:39:29.273Z,4.20
2017-12-12T02:41:55.489Z,4.20
2017-12-12T02:44:21.620Z,4.10
2017-12-12T02:46:47.777Z,4.10
2017-12-12T02:49:14.678Z,4.00
2017-12-12T02:51:40.846Z,4.00
2017-12-12T02:54:06.984Z,4.10
2017-12-12T02:56:33.154Z,4.00
2017-12-12T02:58:59.412Z,4.00
2017-12-12T03:01:25.597Z,4.10
2017-12-12T03:03:51.756Z,4.00
2017-12-12T03:06:18.495Z,4.00
2017-12-12T03:08:44.664Z,3.90
2017-12-12T03:11:10.828Z,3.90
2017-12-12T03:13:37.027Z,3.90
2017-12-12T03:16:04.005Z,3.80
2017-12-12T03:18:30.137Z,3.70
2017-12-12T03:20:56.284Z,3.70
2017-12-12T03:23:22.457Z,3.60
2017-12-12T03:25:48.592Z,3.60
2017-12-12T03:28:14.917Z,3.50
2017-12-12T03:30:41.046Z,3.40
2017-12-12T03:33:07.167Z,3.30
2017-12-12T03:35:33.365Z,3.20
2017-12-12T03:37:59.470Z,3.10
2017-12-12T03:40:25.650Z,3.10
2017-12-12T03:42:52.045Z,3.10
2017-12-12T03:45:18.205Z,3.00
2017-12-12T03:47:44.326Z,2.80
2017-12-12T03:50:10.465Z,2.80
2017-12-12T03:52:36.594Z,2.70
2017-12-12T03:55:02.753Z,2.70
2017-12-12T03:57:28.922Z,2.70
2017-12-12T03:59:55.036Z,2.70
2017-12-12T04:02:21.984Z,2.60
2017-12-12T04:04:48.845Z,2.60
2017-12-12T04:07:15.009Z,2.50
2017-12-12T04:09:41.857Z,2.40
2017-12-12T04:12:08.009Z,2.40
2017-12-12T04:14:34.353Z,2.20
2017-12-12T04:17:01.245Z,1.80
2017-12-12T04:19:28.146Z,1.60
2017-12-12T04:21:54.380Z,1.60
2017-12-12T04:24:20.512Z,1.60
2017-12-12T04:26:46.656Z,1.60
2017-12-12T04:29:12.814Z,1.40
2017-12-12T04:31:38.969Z,1.40
2017-12-12T04:34:05.853Z,1.30
2017-12-12T04:36:31.972Z,1.20
2017-12-12T04:38:58.223Z,1.20
2017-12-12T04:41:24.653Z,1.20
2017-12-12T04:43:50.806Z,1.30
2017-12-12T04:46:16.945Z,1.20
2017-12-12T04:48:43.065Z,1.10
2017-12-12T04:51:09.246Z,1.10
2017-12-12T04:53:35.470Z,1.20
2017-12-12T04:56:01.642Z,1.20
2017-12-12T04:58:27.735Z,1.20
2017-12-12T05:00:53.935Z,1.10
2017-12-12T05:03:20.096Z,1.00
2017-12-12T05:05:46.262Z,1.10
2017-12-12T05:08:12.464Z,1.20
2017-12-12T05:10:38.700Z,1.30
2017-12-12T05:13:04.883Z,1.20
2017-12-12T05:15:30.993Z,1.10
2017-12-12T05:17:57.991Z,1.00
2017-12-12T05:20:24.125Z,1.00
2017-12-12T05:22:50.333Z,1.00
2017-12-12T05:25:16.644Z,1.10
2017-12-12T05:27:42.736Z,1.00
2017-12-12T05:30:09.725Z,0.90
2017-12-12T05:32:35.889Z,0.90
2017-12-12T05:35:02.190Z,1.00
2017-12-12T05:37:28.370Z,1.00
2017-12-12T05:39:55.335Z,1.00
2017-12-12T05:42:21.698Z,1.00
2017-12-12T05:44:47.914Z,1.00
2017-12-12T05:47:14.067Z,0.90
2017-12-12T05:49:40.194Z,0.90
2017-12-12T05:52:06.540Z,0.90
2017-12-12T05:54:32.673Z,0.90
2017-12-12T05:56:59.564Z,1.00
2017-12-12T05:59:25.722Z,1.00
2017-12-12T06:01:52.700Z,1.00
2017-12-12T06:04:18.900Z,0.90
2017-12-12T06:06:46.544Z,1.00
2017-12-12T06:09:12.931Z,1.00
2017-12-12T06:11:39.810Z,1.00
2017-12-12T06:14:05.918Z,1.00
2017-12-12T06:16:32.766Z,1.00
2017-12-12T06:18:58.892Z,1.10
2017-12-12T06:21:25.089Z,1.10
2017-12-12T06:23:51.953Z,1.00
2017-12-12T06:26:18.100Z,1.00
2017-12-12T06:28:44.209Z,1.10
2017-12-12T06:31:10.313Z,1.10
2017-12-12T06:33:37.211Z,1.10
2017-12-12T06:36:03.339Z,1.00
2017-12-12T06:38:29.544Z,1.10
2017-12-12T06:40:56.209Z,1.10
2017-12-12T06:43:23.025Z,1.10
2017-12-12T06:45:49.177Z,1.10
2017-12-12T06:48:15.360Z,1.10
2017-12-12T06:50:41.585Z,1.20
2017-12-12T06:53:08.488Z,1.10
2017-12-12T06:55:35.113Z,1.10
2017-12-12T06:58:01.372Z,1.10
2017-12-12T07:00:27.474Z,1.10
2017-12-12T07:02:53.624Z,1.20
2017-12-12T07:05:19.875Z,1.20
2017-12-12T07:07:46.724Z,1.30
2017-12-12T07:10:12.925Z,1.20
2017-12-12T07:12:39.021Z,1.30
2017-12-12T07:15:05.222Z,1.20
2017-12-12T07:17:31.348Z,1.20
2017-12-12T07:19:57.489Z,1.20
2017-12-12T07:22:23.642Z,1.20
2017-12-12T07:24:49.892Z,1.30
2017-12-12T07:27:16.759Z,1.30
2017-12-12T07:29:42.914Z,1.30
2017-12-12T07:32:09.023Z,1.30
2017-12-12T07:34:35.290Z,1.30
2017-12-12T07:37:01.433Z,1.30
2017-12-12T07:39:27.568Z,1.30
2017-12-12T07:41:54.449Z,1.30
2017-12-12T07:44:20.658Z,1.30
2017-12-12T07:46:46.757Z,1.30
2017-12-12T07:49:12.904Z,1.40
2017-12-12T07:51:39.064Z,1.40
2017-12-12T07:54:05.213Z,1.40
2017-12-12T07:56:32.122Z,1.40
2017-12-12T07:58:58.229Z,1.40
2017-12-12T08:01:24.362Z,1.40
2017-12-12T08:03:50.638Z,1.50
2017-12-12T08:06:16.829Z,1.50
2017-12-12T08:08:42.978Z,1.50
2017-12-12T08:11:09.089Z,1.40
2017-12-12T08:13:35.249Z,1.40
2017-12-12T08:16:01.414Z,1.50
2017-12-12T08:18:27.717Z,1.50
2017-12-12T08:20:53.819Z,1.50
2017-12-12T08:23:19.980Z,1.50
2017-12-12T08:25:46.125Z,1.50
2017-12-12T08:28:12.282Z,1.50
2017-12-12T08:30:38.485Z,1.60
2017-12-12T08:33:05.356Z,1.60
2017-12-12T08:35:31.517Z,1.60
2017-12-12T08:37:57.660Z,1.60
2017-12-12T08:40:24.541Z,1.60
2017-12-12T08:42:50.637Z,1.60
2017-12-12T08:45:16.756Z,1.60
2017-12-12T08:47:43.635Z,1.50
2017-12-12T08:50:09.765Z,1.40
2017-12-12T08:52:35.873Z,1.40
2017-12-12T08:55:02.081Z,1.50
2017-12-12T08:57:28.965Z,1.90
2017-12-12T08:59:55.158Z,1.80
2017-12-12T09:02:22.045Z,1.90
2017-12-12T09:04:48.165Z,1.90
2017-12-12T09:07:14.306Z,1.80
2017-12-12T09:09:40.446Z,1.60
2017-12-12T09:12:07.102Z,1.60
2017-12-12T09:14:33.185Z,1.60
2017-12-12T09:16:59.339Z,1.70
2017-12-12T09:19:25.458Z,1.80
2017-12-12T09:21:51.577Z,2.00
2017-12-12T09:24:17.755Z,2.20
2017-12-12T09:26:44.030Z,2.10
2017-12-12T09:29:10.116Z,2.10
2017-12-12T09:31:36.217Z,1.90
2017-12-12T09:34:02.405Z,1.90
2017-12-12T09:36:28.546Z,1.80
2017-12-12T09:38:54.752Z,1.80
2017-12-12T09:41:20.905Z,1.70
2017-12-12T09:43:47.052Z,1.80
2017-12-12T09:46:13.176Z,1.80
2017-12-12T09:48:39.320Z,1.80
2017-12-12T09:51:06.125Z,1.90
2017-12-12T09:53:32.233Z,2.00
2017-12-12T09:55:58.405Z,2.00
2017-12-12T09:58:25.289Z,2.10
2017-12-12T10:00:51.448Z,2.10
2017-12-12T10:03:17.562Z,2.20
2017-12-12T10:05:43.718Z,2.20
2017-12-12T10:08:09.838Z,2.20
2017-12-12T10:10:36.142Z,2.10
2017-12-12T10:13:02.997Z,2.40
2017-12-12T10:15:29.465Z,2.30
2017-12-12T10:17:56.349Z,2.60
2017-12-12T10:20:22.476Z,2.50
2017-12-12T10:22:48.665Z,2.60
2017-12-12T10:25:14.923Z,2.70
2017-12-12T10:27:41.095Z,2.70
2017-12-12T10:30:07.241Z,2.80
2017-12-12T10:32:34.115Z,2.60
2017-12-12T10:35:00.326Z,2.60
2017-12-12T10:37:27.228Z,2.50
2017-12-12T10:39:53.773Z,2.50
2017-12-12T10:42:20.922Z,2.40
2017-12-12T10:44:47.174Z,2.40
2017-12-12T10:47:13.588Z,2.30
2017-12-12T10:49:39.974Z,2.40
2017-12-12T10:52:06.108Z,2.60
2017-12-12T10:54:32.438Z,2.60
2017-12-12T10:56:58.600Z,2.70
2017-12-12T10:59:24.725Z,2.80
2017-12-12T11:01:50.853Z,2.90
2017-12-12T11:04:16.967Z,3.40
2017-12-12T11:06:44.133Z,3.80
2017-12-12T11:09:10.241Z,3.50
2017-12-12T11:11:36.433Z,3.50
2017-12-12T11:14:02.558Z,3.10
2017-12-12T11:16:28.823Z,2.90
2017-12-12T11:18:54.954Z,2.80
2017-12-12T11:21:21.112Z,2.80
2017-12-12T11:23:47.959Z,3.10
2017-12-12T11:26:14.832Z,3.50
2017-12-12T11:28:41.054Z,3.50
2017-12-12T11:31:07.266Z,3.70
2017-12-12T11:33:34.185Z,3.50
2017-12-12T11:36:00.318Z,3.50
2017-12-12T11:38:27.192Z,3.30
2017-12-12T11:40:53.342Z,3.30
2017-12-12T11:43:19.620Z,3.30
2017-12-12T11:45:45.717Z,3.50
2017-12-12T11:48:11.919Z,3.40
2017-12-12T11:50:38.081Z,3.40
2017-12-12T11:53:04.194Z,3.30
2017-12-12T11:55:30.579Z,3.20
2017-12-12T11:57:56.690Z,3.40
2017-12-12T12:00:23.659Z,3.60
2017-12-12T12:02:49.784Z,3.60
2017-12-12T12:05:16.006Z,4.00
2017-12-12T12:07:42.141Z,4.10
2017-12-12T12:10:08.316Z,3.70
2017-12-12T12:12:34.545Z,3.50
2017-12-12T12:15:00.750Z,3.60
2017-12-12T12:17:26.929Z,3.30
2017-12-12T12:19:53.833Z,3.10
2017-12-12T12:22:20.026Z,3.10
2017-12-12T12:24:46.247Z,3.10
2017-12-12T12:27:12.545Z,3.20
2017-12-12T12:29:38.706Z,3.00
2017-12-12T12:32:04.867Z,2.90
2017-12-12T12:34:31.057Z,2.90
2017-12-12T12:36:57.286Z,2.80
2017-12-12T12:39:23.455Z,2.80
2017-12-12T12:41:50.382Z,2.70
2017-12-12T12:44:16.995Z,2.70
2017-12-12T12:46:43.146Z,2.70
2017-12-12T12:49:10.093Z,2.70
2017-12-12T12:51:36.201Z,2.70
2017-12-12T12:54:02.370Z,2.70
2017-12-12T12:56:28.496Z,2.70
2017-12-12T12:58:54.665Z,2.80
2017-12-12T13:01:20.841Z,2.70
2017-12-12T13:03:47.100Z,2.70
2017-12-12T13:06:13.985Z,2.80
2017-12-12T13:08:40.306Z,2.70
2017-12-12T13:11:06.460Z,2.80
2017-12-12T13:13:32.773Z,3.00
2017-12-12T13:15:59.002Z,3.10
2017-12-12T13:18:25.121Z,3.00
2017-12-12T13:20:51.498Z,3.10
2017-12-12T13:23:17.674Z,3.00
2017-12-12T13:25:43.835Z,3.00
2017-12-12T13:28:10.021Z,3.00
2017-12-12T13:30:36.187Z,3.00
2017-12-12T13:33:02.429Z,3.00
2017-12-12T13:35:28.553Z,2.90
2017-12-12T13:37:54.736Z,2.90
2017-12-12T13:40:20.872Z,2.90
2017-12-12T13:42:47.046Z,2.80
2017-12-12T13:45:13.329Z,2.80
2017-12-12T13:47:39.486Z,2.90
2017-12-12T13:50:05.736Z,2.80
2017-12-12T13:52:31.913Z,2.70
2017-12-12T13:54:58.082Z,2.80
2017-12-12T13:57:24.663Z,2.90
2017-12-12T13:59:50.870Z,2.80
2017-12-12T14:02:17.024Z,2.80
2017-12-12T14:04:43.225Z,2.90
2017-12-12T14:07:10.145Z,2.90
2017-12-12T14:09:36.329Z,2.80
2017-12-12T14:12:02.491Z,2.80
2017-12-12T14:14:28.703Z,2.90
2017-12-12T14:16:54.907Z,2.80
2017-12-12T14:19:21.042Z,2.80
2017-12-12T14:21:47.269Z,2.70
2017-12-12T14:24:13.402Z,2.70
2017-12-12T14:26:39.660Z,2.70
2017-12-12T14:29:05.814Z,2.70
2017-12-12T14:31:31.978Z,2.80
2017-12-12T14:33:58.765Z,2.70
2017-12-12T14:36:24.912Z,2.80
2017-12-12T14:38:51.167Z,2.70
2017-12-12T14:41:17.321Z,2.80
2017-12-12T14:43:43.530Z,2.70
2017-12-12T14:46:09.715Z,2.70
2017-12-12T14:48:36.670Z,2.50
2017-12-12T14:51:03.164Z,2.50
2017-12-12T14:53:30.069Z,2.60
2017-12-12T14:55:56.189Z,2.60
2017-12-12T14:58:22.368Z,2.60
2017-12-12T15:00:48.569Z,2.60
2017-12-12T15:03:14.777Z,2.60
2017-12-12T15:05:40.892Z,2.60
2017-12-12T15:08:07.049Z,2.60
2017-12-12T15:10:33.197Z,2.60
2017-12-12T15:12:59.497Z,2.60
2017-12-12T15:15:25.665Z,2.50
2017-12-12T15:17:51.834Z,2.50
2017-12-12T15:20:17.969Z,2.50
2017-12-12T15:22:44.153Z,2.50
2017-12-12T15:25:10.464Z,2.50
2017-12-12T15:27:36.590Z,2.80
2017-12-12T15:30:02.841Z,2.80
2017-12-12T15:32:29.754Z,2.50
2017-12-12T15:34:55.879Z,2.50
2017-12-12T15:37:22.018Z,2.50
2017-12-12T15:39:48.191Z,2.60
2017-12-12T15:42:14.355Z,2.50
2017-12-12T15:44:41.266Z,2.50
2017-12-12T15:47:07.418Z,2.40
2017-12-12T15:49:33.731Z,2.50
2017-12-12T15:51:59.976Z,2.40
2017-12-12T15:54:26.186Z,2.40
2017-12-12T15:56:52.347Z,2.40
2017-12-12T15:59:18.493Z,2.40
2017-12-12T16:01:44.963Z,2.40
2017-12-12T16:04:11.118Z,2.40
2017-12-12T16:06:37.538Z,2.40
2017-12-12T16:09:03.756Z,2.40
2017-12-12T16:11:29.943Z,2.40
2017-12-12T16:13:56.158Z,2.40
2017-12-12T16:16:22.348Z,2.40
2017-12-12T16:18:48.652Z,2.50
2017-12-12T16:21:14.816Z,2.50
2017-12-12T16:23:41.546Z,2.50
2017-12-12T16:26:07.696Z,2.60
2017-12-12T16:28:33.876Z,2.60
2017-12-12T16:31:00.067Z,2.60
2017-12-12T16:33:26.261Z,2.60
2017-12-12T16:35:52.726Z,2.60
2017-12-12T16:38:18.961Z,2.50
2017-12-12T16:40:46.650Z,2.40
2017-12-12T16:43:12.818Z,2.40
2017-12-12T16:45:39.714Z,2.40
2017-12-12T16:48:05.931Z,2.40
2017-12-12T16:50:32.099Z,2.40
2017-12-12T16:52:58.309Z,2.50
2017-12-12T16:55:24.777Z,2.40
2017-12-12T16:57:50.988Z,2.10
2017-12-12T17:00:17.138Z,2.00
2017-12-12T17:02:43.345Z,2.00
2017-12-12T17:05:09.578Z,2.10
2017-12-12T17:07:35.869Z,1.90
2017-12-12T17:10:02.045Z,1.90
2017-12-12T17:12:28.239Z,1.80
2017-12-12T17:14:54.491Z,1.80
2017-12-12T17:17:20.664Z,1.70
2017-12-12T17:19:46.967Z,1.60
2017-12-12T17:22:13.166Z,1.50
2017-12-12T17:24:39.378Z,1.50
2017-12-12T17:27:05.625Z,1.40
2017-12-12T17:29:31.945Z,1.40
2017-12-12T17:31:58.099Z,1.20
2017-12-12T17:34:24.313Z,1.10
2017-12-12T17:36:51.375Z,1.10
2017-12-12T17:39:17.633Z,1.20
2017-12-12T17:41:43.839Z,1.20
2017-12-12T17:44:10.113Z,1.30
2017-12-12T17:46:37.034Z,1.40
2017-12-12T17:49:03.281Z,1.40
2017-12-12T17:51:29.759Z,1.50
2017-12-12T17:53:55.935Z,1.50
2017-12-12T17:56:22.050Z,1.50
2017-12-12T17:58:48.282Z,1.50
2017-12-12T18:01:14.520Z,1.60
2017-12-12T18:03:40.844Z,1.70
2017-12-12T18:06:07.026Z,1.80
2017-12-12T18:08:33.509Z,1.80
2017-12-12T18:11:00.317Z,1.90
2017-12-12T18:13:26.541Z,2.00
2017-12-12T18:15:52.743Z,2.00
2017-12-12T18:18:19.001Z,2.00
2017-12-12T18:20:45.267Z,2.00
2017-12-12T18:23:11.417Z,2.00
2017-12-12T18:25:38.454Z,2.10
2017-12-12T18:28:05.580Z,2.10
2017-12-12T18:30:31.829Z,2.10
2017-12-12T18:32:58.088Z,2.10
2017-12-12T18:35:24.276Z,1.90
2017-12-12T18:37:50.503Z,2.00
2017-12-12T18:40:16.707Z,2.00
2017-12-12T18:42:42.993Z,2.10
2017-12-12T18:45:09.324Z,2.10
2017-12-12T18:47:36.285Z,2.10
2017-12-12T18:50:02.554Z,2.10
2017-12-12T18:52:28.707Z,2.20
2017-12-12T18:54:55.792Z,2.20
2017-12-12T18:57:22.002Z,2.20
2017-12-12T18:59:48.273Z,2.20
2017-12-12T19:02:14.617Z,2.10
2017-12-12T19:04:40.835Z,2.10
2017-12-12T19:07:07.233Z,2.10
2017-12-12T19:09:33.482Z,2.10
2017-12-12T19:11:59.904Z,2.10
2017-12-12T19:14:26.114Z,2.00
2017-12-12T19:16:52.478Z,2.00
2017-12-12T19:19:18.667Z,2.00
2017-12-12T19:21:45.660Z,1.90
2017-12-12T19:24:11.943Z,1.90
2017-12-12T19:26:38.150Z,1.90
2017-12-12T19:29:04.414Z,1.90
2017-12-12T19:31:30.721Z,1.80
2017-12-12T19:33:57.382Z,1.80
2017-12-12T19:36:23.590Z,1.70
2017-12-12T19:38:49.905Z,1.70
2017-12-12T19:41:16.218Z,1.80
2017-12-12T19:43:42.586Z,1.80
2017-12-12T19:46:09.672Z,1.60
2017-12-12T19:48:35.964Z,1.60
2017-12-12T19:51:03.023Z,1.50
2017-12-12T19:53:29.990Z,1.60
2017-12-12T19:55:56.314Z,1.70
2017-12-12T19:58:22.457Z,1.60
2017-12-12T20:00:48.716Z,1.60
2017-12-12T20:03:14.998Z,1.60
2017-12-12T20:05:41.576Z,1.60
2017-12-12T20:08:07.866Z,1.70
2017-12-12T20:10:35.018Z,1.80
2017-12-12T20:13:01.423Z,1.80
2017-12-12T20:15:27.628Z,1.70
2017-12-12T20:17:53.909Z,1.80
2017-12-12T20:20:20.145Z,1.80
2017-12-12T20:22:46.321Z,1.70
2017-12-12T20:25:14.155Z,1.80
2017-12-12T20:27:42.564Z,1.80
2017-12-12T20:30:08.908Z,1.80
2017-12-12T20:32:35.840Z,1.60
2017-12-12T20:35:02.142Z,1.60
2017-12-12T20:37:29.302Z,1.60
2017-12-12T20:39:55.700Z,1.60
2017-12-12T20:42:22.956Z,1.70
2017-12-12T20:44:49.526Z,1.70
2017-12-12T20:47:15.661Z,1.60
2017-12-12T20:49:41.853Z,1.60
2017-12-12T20:52:08.054Z,1.60
2017-12-12T20:54:34.721Z,1.60
2017-12-12T20:57:01.004Z,1.60
2017-12-12T20:59:28.126Z,1.50
2017-12-12T21:01:54.306Z,1.50
2017-12-12T21:04:20.594Z,1.60
2017-12-12T21:06:46.975Z,1.60
2017-12-12T21:09:13.360Z,1.60
2017-12-12T21:11:40.431Z,1.50
2017-12-12T21:14:06.682Z,1.50
2017-12-12T21:16:32.887Z,1.50
2017-12-12T21:18:59.081Z,1.50
2017-12-12T21:21:25.329Z,1.50
2017-12-12T21:23:52.232Z,1.50
2017-12-12T21:26:19.228Z,1.50
2017-12-12T21:28:45.390Z,1.50
2017-12-12T21:31:11.513Z,1.60
2017-12-12T21:33:37.694Z,1.60
2017-12-12T21:36:05.291Z,1.60
2017-12-12T21:38:31.473Z,1.50
2017-12-12T21:40:57.698Z,1.60
2017-12-12T21:43:24.598Z,1.50
2017-12-12T21:45:50.740Z,1.50
2017-12-12T21:48:16.979Z,1.60
2017-12-12T21:50:43.434Z,1.60
2017-12-12T21:53:09.614Z,1.60
2017-12-12T21:55:35.818Z,1.60
2017-12-12T21:58:02.778Z,1.50
2017-12-12T22:00:29.219Z,1.50
2017-12-12T22:02:55.501Z,1.50
2017-12-12T22:05:21.668Z,1.50
2017-12-12T22:07:47.949Z,1.50
2017-12-12T22:10:14.138Z,1.50
2017-12-12T22:12:40.360Z,1.60
2017-12-12T22:15:06.590Z,1.60
2017-12-12T22:17:32.793Z,1.50
2017-12-12T22:19:59.085Z,1.50
2017-12-12T22:22:25.224Z,1.60
2017-12-12T22:24:51.408Z,1.50
2017-12-12T22:27:17.627Z,1.50
2017-12-12T22:29:43.842Z,1.50
2017-12-12T22:32:10.037Z,1.50
2017-12-12T22:34:36.231Z,1.40
2017-12-12T22:37:02.369Z,1.40
2017-12-12T22:39:29.111Z,1.40
2017-12-12T22:41:55.278Z,1.40
2017-12-12T22:44:22.257Z,1.30
2017-12-12T22:46:48.409Z,1.30
2017-12-12T22:49:14.770Z,1.30
2017-12-12T22:51:41.625Z,1.30
2017-12-12T22:54:08.034Z,1.20
2017-12-12T22:56:34.157Z,1.20
2017-12-12T22:59:00.357Z,1.10
2017-12-12T23:01:26.509Z,1.20
2017-12-12T23:03:53.457Z,1.20
2017-12-12T23:06:19.616Z,1.20
2017-12-12T23:08:45.756Z,1.20
2017-12-12T23:11:12.000Z,1.20
2017-12-12T23:13:38.180Z,1.20
2017-12-12T23:16:05.052Z,1.10
2017-12-12T23:18:32.072Z,1.10
2017-12-12T23:20:59.000Z,1.10
2017-12-12T23:23:25.179Z,1.00
2017-12-12T23:25:51.351Z,1.00
2017-12-12T23:28:17.464Z,1.00
2017-12-12T23:30:43.624Z,1.00
2017-12-12T23:33:10.813Z,1.00
2017-12-12T23:35:36.990Z,1.00
2017-12-12T23:38:03.117Z,1.00
2017-12-12T23:40:29.441Z,1.00
2017-12-12T23:42:55.606Z,1.10
2017-12-12T23:45:38.388Z,1.10
2017-12-12T23:50:39.033Z,1.10
2017-12-12T23:53:05.248Z,1.10
2017-12-12T23:55:32.089Z,1.10
2017-12-12T23:57:59.133Z,1.10
